Stevenson, Washington
Current Conditions -  °F | °C
As of 8:59 AM on Friday 19 Dec 2014 (Local Time) from K4S2 Reporting Station
Moderate Rain Moderate Rain  
Wind Chill: 39°   Ceiling: 3700
Heat Index: 39°   Visibility: 2.5mi
Dew Point: 37°   Wind: 0mph
Humidity: 93%   Direction: NA
Pressure: 29.99"   Gusts: NA
Location:  45.7°N, 121.88°W
Report Text: K4S2 191659Z AUTO 00000KT 2 1/2SM RA SCT001 BKN037 OVC046 04/03 A2999 RMK AO2 P0001 SLP173 T00400030
Loading
Personal Weather Stations






























Interactive Weather Map New forecast layout! Learn more

10-Day Weather Forecast

Advertisements
Track Severe Weather on mobile